Time;durP1;ratioP1;P1;durP2;ratioP2;P2;SDS_P1;SDS_P2;PMS_P1;PMS_P2;Temp;Humidity;BMP_temperature;BMP_pressure;BME280_temperature;BME280_humidity;BME280_pressure;Samples;Min_cycle;Max_cycle;Signal;HPM_P1;HPM_P2
2022/07/29 00:00:33;;;;;;;7.22;5.60;;;20.30;6.00;;;;;;7388810;19;20014;-69
2022/07/29 00:03:11;;;;;;;8.10;6.18;;;20.30;6.70;;;;;;7363848;19;20014;-69
2022/07/29 00:05:44;;;;;;;6.68;6.07;;;20.40;7.40;;;;;;7365604;19;20018;-69
2022/07/29 00:08:15;;;;;;;35.25;6.43;;;20.30;7.40;;;;;;7366385;19;20015;-69
2022/07/29 00:10:45;;;;;;;7.80;6.00;;;20.20;8.50;;;;;;7366555;19;20089;-69
2022/07/29 00:13:17;;;;;;;8.15;6.15;;;20.30;8.20;;;;;;7367246;19;20498;-69
2022/07/29 00:16:01;;;;;;;7.85;6.47;;;20.10;9.70;;;;;;7366592;19;20014;-70
2022/07/29 00:18:33;;;;;;;9.00;5.60;;;20.10;9.80;;;;;;7387910;19;20037;-69
2022/07/29 00:21:03;;;;;;;8.05;6.15;;;20.10;10.30;;;;;;7365555;19;20082;-70
2022/07/29 00:23:33;;;;;;;6.95;5.90;;;20.10;10.20;;;;;;7363423;19;20015;-70
2022/07/29 00:26:05;;;;;;;7.38;6.47;;;20.10;10.10;;;;;;7364862;19;20025;-69
2022/07/29 00:28:38;;;;;;;6.78;5.50;;;20.00;10.50;;;;;;7365725;19;20015;-69
2022/07/29 00:31:08;;;;;;;9.13;6.00;;;20.00;10.50;;;;;;7367143;19;20020;-69
2022/07/29 00:33:38;;;;;;;7.18;5.28;;;20.00;11.20;;;;;;7382057;19;20022;-68
2022/07/29 00:36:05;;;;;;;7.35;5.63;;;19.90;12.30;;;;;;7364007;19;20021;-69
2022/07/29 00:38:35;;;;;;;6.68;6.03;;;19.90;11.80;;;;;;7364688;19;20402;-70
2022/07/29 00:41:05;;;;;;;7.28;5.80;;;19.90;12.20;;;;;;7365776;19;20023;-69
2022/07/29 00:43:37;;;;;;;6.60;5.93;;;20.00;11.70;;;;;;7363808;19;20015;-69
2022/07/29 00:46:08;;;;;;;7.53;5.78;;;19.80;13.00;;;;;;7365513;19;20029;-68
2022/07/29 00:48:38;;;;;;;10.38;6.25;;;19.70;14.40;;;;;;7386589;19;20469;-68
2022/07/29 00:51:14;;;;;;;8.40;6.13;;;19.60;14.40;;;;;;7365765;19;20014;-70
2022/07/29 00:53:46;;;;;;;7.25;6.30;;;19.70;14.40;;;;;;7362225;19;20429;-68
2022/07/29 00:56:16;;;;;;;7.40;6.20;;;19.80;14.50;;;;;;7362760;19;20082;-69
2022/07/29 00:58:53;;;;;;;9.88;6.03;;;19.90;13.70;;;;;;7364468;19;20020;-69
2022/07/29 01:01:23;;;;;;;9.25;6.38;;;19.90;13.50;;;;;;7365152;19;20042;-69
2022/07/29 01:03:53;;;;;;;7.30;6.25;;;19.80;13.80;;;;;;7386094;19;20014;-70
2022/07/29 01:06:23;;;;;;;7.18;6.47;;;19.80;13.90;;;;;;7363934;19;20025;-69
2022/07/29 01:08:53;;;;;;;8.45;6.25;;;19.80;13.60;;;;;;7364900;19;20021;-68
2022/07/29 01:11:24;;;;;;;6.78;6.05;;;19.80;14.40;;;;;;7364902;19;20014;-69
2022/07/29 01:13:56;;;;;;;9.82;6.63;;;19.70;14.40;;;;;;7363920;19;20021;-68
2022/07/29 01:16:33;;;;;;;8.30;6.35;;;19.70;14.40;;;;;;7362257;19;20488;-68
2022/07/29 01:19:12;;;;;;;8.65;6.53;;;19.70;14.40;;;;;;7365967;19;20019;-69
2022/07/29 01:21:56;;;;;;;7.15;6.18;;;19.70;14.40;;;;;;7386902;19;20102;-69
2022/07/29 01:25:00;;;;;;;7.13;6.35;;;19.70;14.30;;;;;;7362544;19;20014;-69
2022/07/29 01:27:43;;;;;;;6.85;6.18;;;19.60;14.40;;;;;;7362352;19;20034;-69
2022/07/29 01:30:17;;;;;;;6.93;6.15;;;19.50;14.50;;;;;;7364469;19;20006;-70
2022/07/29 01:32:52;;;;;;;7.57;6.00;;;19.60;14.40;;;;;;7364431;19;20385;-68
2022/07/29 01:35:26;;;;;;;7.30;6.13;;;19.60;14.90;;;;;;7363476;19;20066;-68
2022/07/29 01:38:03;;;;;;;12.32;6.72;;;19.60;15.00;;;;;;7362166;19;20446;-70
2022/07/29 01:40:39;;;;;;;9.52;6.43;;;19.50;15.60;;;;;;7363954;19;20129;-68
2022/07/29 01:43:16;;;;;;;9.57;6.95;;;19.50;16.10;;;;;;7361658;19;20015;-70
2022/07/29 01:45:53;;;;;;;7.20;6.35;;;19.50;16.10;;;;;;7391289;19;20115;-69
2022/07/29 01:48:30;;;;;;;8.32;7.15;;;19.50;16.20;;;;;;7371360;19;20006;-69
2022/07/29 01:51:02;;;;;;;;;;;19.50;16.10;;;;;;7369702;19;20077;-69
2022/07/29 01:53:36;;;;;;;7.47;6.45;;;19.40;17.10;;;;;;7369394;19;20394;-69
2022/07/29 01:56:08;;;;;;;7.97;6.22;;;19.30;18.20;;;;;;7369042;19;20011;-69
2022/07/29 01:58:42;;;;;;;8.02;6.30;;;19.00;17.60;;;;;;7370588;19;20014;-69
2022/07/29 02:01:16;;;;;;;6.50;5.72;;;18.90;18.80;;;;;;7372500;19;20014;-68
2022/07/29 02:03:47;;;;;;;8.75;6.10;;;18.70;20.20;;;;;;7392632;19;20047;-69
2022/07/29 02:06:21;;;;;;;7.80;6.28;;;18.70;20.90;;;;;;7370126;19;20010;-69
2022/07/29 02:08:52;;;;;;;9.23;6.40;;;18.70;21.00;;;;;;7370391;19;20455;-68
2022/07/29 02:11:22;;;;;;;8.38;6.72;;;18.70;21.00;;;;;;7370989;19;20015;-68
2022/07/29 02:13:54;;;;;;;6.95;6.25;;;18.70;21.50;;;;;;7369480;19;20018;-69
2022/07/29 02:16:29;;;;;;;9.30;6.78;;;18.70;21.00;;;;;;7368361;19;20011;-69
2022/07/29 02:19:03;;;;;;;8.85;6.25;;;18.70;21.50;;;;;;7389522;19;20014;-69
2022/07/29 02:21:35;;;;;;;6.95;6.25;;;18.80;22.10;;;;;;7389804;19;20032;-68
2022/07/29 02:24:07;;;;;;;9.77;6.18;;;18.70;22.10;;;;;;7367633;19;20054;-69
2022/07/29 02:26:40;;;;;;;8.15;6.43;;;18.60;22.70;;;;;;7367950;19;20010;-69
2022/07/29 02:29:12;;;;;;;10.17;6.67;;;18.50;23.20;;;;;;7369755;19;20081;-69
2022/07/29 02:31:47;;;;;;;7.70;6.90;;;18.50;23.60;;;;;;7366447;19;20802;-69
2022/07/29 02:34:19;;;;;;;10.88;6.78;;;18.40;24.30;;;;;;7366517;19;20022;-69
2022/07/29 02:36:52;;;;;;;9.35;7.30;;;18.40;24.30;;;;;;7389655;19;20014;-68
2022/07/29 02:39:25;;;;;;;7.90;7.07;;;18.30;24.60;;;;;;7369014;19;20011;-70
2022/07/29 02:42:01;;;;;;;7.75;6.95;;;18.20;24.40;;;;;;7367062;19;20378;-68
2022/07/29 02:44:32;;;;;;;9.73;7.57;;;18.10;25.20;;;;;;7367747;19;20123;-68
2022/07/29 02:47:15;;;;;;;7.35;6.75;;;18.20;25.80;;;;;;7367140;19;20011;-68
2022/07/29 02:49:52;;;;;;;10.45;7.50;;;18.00;25.20;;;;;;7368945;19;20011;-68
2022/07/29 02:52:27;;;;;;;8.55;7.60;;;18.00;26.00;;;;;;7366988;19;20048;-68
2022/07/29 02:55:00;;;;;;;8.57;7.10;;;18.10;26.10;;;;;;7388659;19;20027;-68
2022/07/29 02:57:36;;;;;;;10.02;7.60;;;18.00;25.90;;;;;;7366664;19;20007;-68
2022/07/29 03:00:25;;;;;;;8.45;7.38;;;18.10;26.20;;;;;;7366127;19;20014;-69
2022/07/29 03:03:01;;;;;;;9.50;7.50;;;18.00;26.20;;;;;;7366205;19;20021;-69
2022/07/29 03:05:31;;;;;;;9.45;7.45;;;17.90;27.30;;;;;;7368016;19;20472;-68
2022/07/29 03:08:08;;;;;;;9.82;7.45;;;17.90;27.40;;;;;;7368175;19;20013;-69
2022/07/29 03:10:40;;;;;;;9.88;7.50;;;17.90;27.60;;;;;;7367294;19;20036;-68
2022/07/29 03:13:12;;;;;;;7.63;6.80;;;17.90;28.10;;;;;;7369741;19;20022;-69
2022/07/29 03:15:43;;;;;;;8.93;7.93;;;17.80;27.70;;;;;;7389427;19;20022;-68
2022/07/29 03:18:16;;;;;;;7.70;7.00;;;17.90;28.10;;;;;;7367718;19;20011;-68
2022/07/29 03:20:46;;;;;;;9.00;7.37;;;18.10;27.70;;;;;;7365718;19;20048;-69
2022/07/29 03:23:22;;;;;;;10.20;7.22;;;18.10;27.00;;;;;;7365853;19;20010;-69
2022/07/29 03:25:52;;;;;;;8.82;7.13;;;18.10;27.40;;;;;;7366539;19;20489;-69
2022/07/29 03:28:23;;;;;;;7.88;7.10;;;18.20;26.60;;;;;;7368867;19;20018;-69
2022/07/29 03:30:56;;;;;;;7.82;7.03;;;18.10;26.70;;;;;;7387039;19;20055;-69
2022/07/29 03:33:28;;;;;;;8.48;7.57;;;18.10;26.90;;;;;;7365224;19;20010;-68
2022/07/29 03:35:58;;;;;;;8.02;7.05;;;18.10;27.30;;;;;;7366161;19;20086;-69
2022/07/29 03:38:32;;;;;;;7.90;7.10;;;18.10;26.80;;;;;;7365198;19;20453;-69
2022/07/29 03:41:06;;;;;;;10.75;7.38;;;18.10;26.90;;;;;;7367066;19;20500;-68
2022/07/29 03:43:40;;;;;;;8.30;6.90;;;18.10;27.50;;;;;;7365702;19;20021;-68
2022/07/29 03:46:20;;;;;;;8.40;7.05;;;18.20;26.90;;;;;;7366717;19;20074;-69
2022/07/29 03:48:58;;;;;;;8.25;6.40;;;18.30;27.00;;;;;;7389940;19;20034;-69
2022/07/29 03:51:28;;;;;;;8.50;7.53;;;18.50;26.00;;;;;;7368105;19;20014;-70
2022/07/29 03:54:04;;;;;;;9.30;7.10;;;18.60;24.50;;;;;;7364241;19;20010;-69
2022/07/29 03:56:44;;;;;;;9.25;6.57;;;18.70;23.60;;;;;;7365531;19;20021;-68
2022/07/29 03:59:15;;;;;;;10.00;7.13;;;18.80;23.30;;;;;;7367320;19;20006;-69
2022/07/29 04:01:45;;;;;;;8.40;6.88;;;18.90;23.10;;;;;;7364451;19;20014;-68
2022/07/29 04:04:18;;;;;;;8.35;6.28;;;19.00;22.30;;;;;;7364241;19;20014;-69
2022/07/29 04:06:49;;;;;;;8.43;6.60;;;19.20;21.40;;;;;;7385451;19;20407;-69
2022/07/29 04:09:19;;;;;;;9.43;6.13;;;19.10;21.90;;;;;;7366429;19;20070;-69
2022/07/29 04:11:49;;;;;;;7.20;6.00;;;19.20;22.00;;;;;;7365342;19;20070;-69
2022/07/29 04:14:33;;;;;;;7.95;5.97;;;19.30;21.40;;;;;;7364883;19;20025;-69
2022/07/29 04:17:03;;;;;;;8.02;6.13;;;19.50;20.60;;;;;;7365100;19;20011;-69
2022/07/29 04:19:35;;;;;;;7.30;6.38;;;19.50;19.40;;;;;;7365850;19;20086;-69
2022/07/29 04:22:05;;;;;;;6.57;5.93;;;19.50;16.20;;;;;;7364059;19;20078;-69
2022/07/29 04:24:35;;;;;;;7.78;6.57;;;19.30;18.10;;;;;;7386065;19;20263;-69
2022/07/29 04:27:05;;;;;;;7.80;6.25;;;19.10;17.10;;;;;;7363388;19;20643;-69
2022/07/29 04:29:35;;;;;;;7.47;5.90;;;19.00;19.90;;;;;;7364131;19;20058;-69
2022/07/29 04:32:25;;;;;;;7.68;6.40;;;19.00;21.20;;;;;;7362681;19;20019;-69
2022/07/29 04:34:57;;;;;;;7.43;6.18;;;19.10;20.40;;;;;;7364304;19;20014;-70
2022/07/29 04:37:27;;;;;;;10.55;6.45;;;19.10;20.70;;;;;;7362970;19;20014;-69
2022/07/29 04:39:57;;;;;;;6.50;5.82;;;19.30;20.20;;;;;;7386647;19;20007;-69
2022/07/29 04:42:27;;;;;;;9.98;6.97;;;19.20;19.90;;;;;;7366029;19;20015;-70
2022/07/29 04:44:58;;;;;;;7.68;6.40;;;19.30;20.10;;;;;;7363788;19;20105;-69
2022/07/29 04:47:30;;;;;;;6.97;6.32;;;19.20;21.20;;;;;;7364708;19;20633;-70
2022/07/29 04:50:02;;;;;;;8.88;6.90;;;19.30;21.00;;;;;;7364989;19;20092;-68
2022/07/29 04:52:32;;;;;;;9.13;6.30;;;19.40;21.40;;;;;;7365730;19;20109;-69
2022/07/29 04:55:02;;;;;;;7.32;6.63;;;20.30;14.80;;;;;;7365110;19;20028;-69
2022/07/29 04:57:32;;;;;;;7.50;6.28;;;22.00;1.00;;;;;;7384438;19;20439;-69
2022/07/29 05:00:02;;;;;;;7.35;6.65;;;22.60;1.00;;;;;;7364169;19;20010;-69
2022/07/29 05:02:32;;;;;;;9.23;5.82;;;22.80;1.00;;;;;;7365610;19;20078;-69
2022/07/29 05:05:05;;;;;;;6.75;6.10;;;22.50;1.00;;;;;;7364563;19;20018;-68
2022/07/29 05:07:35;;;;;;;7.15;5.97;;;21.40;1.00;;;;;;7362442;19;20011;-68
2022/07/29 05:10:06;;;;;;;6.63;5.40;;;20.70;6.80;;;;;;7363811;19;20011;-68
2022/07/29 05:12:36;;;;;;;7.82;5.25;;;22.60;1.00;;;;;;7386461;19;20082;-68
2022/07/29 05:15:07;;;;;;;5.93;5.30;;;23.20;1.00;;;;;;7363629;19;20275;-69
2022/07/29 05:17:37;;;;;;;6.60;5.85;;;24.00;1.00;;;;;;7362866;19;20090;-70
2022/07/29 05:20:10;;;;;;;8.05;5.85;;;24.10;1.00;;;;;;7364895;19;20018;-70
2022/07/29 05:22:40;;;;;;;6.38;5.78;;;23.80;1.00;;;;;;7362510;19;20014;-69
2022/07/29 05:25:11;;;;;;;7.68;6.68;;;21.60;1.00;;;;;;7365300;19;20025;-68
2022/07/29 05:27:41;;;;;;;9.23;6.47;;;21.30;1.00;;;;;;7382078;19;20015;-71
2022/07/29 05:30:12;;;;;;;10.88;7.40;;;21.80;1.00;;;;;;7363010;19;20033;-65
2022/07/29 05:32:42;;;;;;;7.43;5.75;;;23.30;1.00;;;;;;7363713;19;20403;-64
2022/07/29 05:35:16;;;;;;;7.47;6.07;;;24.20;1.00;;;;;;7361161;19;20495;-66
2022/07/29 05:37:45;;;;;;;8.55;6.65;;;24.70;1.00;;;;;;7360790;19;20025;-64
2022/07/29 05:40:15;;;;;;;7.65;6.82;;;24.50;1.00;;;;;;7363497;19;20041;-65
2022/07/29 05:42:45;;;;;;;6.43;5.78;;;23.70;1.00;;;;;;7384823;19;20520;-65
2022/07/29 05:45:15;;;;;;;6.45;5.50;;;23.90;1.00;;;;;;7362859;19;20050;-65
2022/07/29 05:47:45;;;;;;;7.82;5.47;;;24.30;1.00;;;;;;7362345;19;20669;-66
2022/07/29 05:50:17;;;;;;;8.35;5.55;;;23.90;1.00;;;;;;7362330;19;20482;-66
2022/07/29 05:52:47;;;;;;;5.97;5.38;;;22.50;1.00;;;;;;7362230;19;20080;-65
2022/07/29 05:55:18;;;;;;;7.20;5.20;;;22.50;1.00;;;;;;7362747;19;20019;-65
2022/07/29 05:57:48;;;;;;;5.95;5.07;;;22.30;1.00;;;;;;7384687;19;20033;-65
2022/07/29 06:00:19;;;;;;;9.57;5.50;;;22.60;1.00;;;;;;7362212;19;20053;-65
2022/07/29 06:02:48;;;;;;;6.38;5.70;;;22.30;1.00;;;;;;7360594;19;20073;-65
2022/07/29 06:05:21;;;;;;;5.88;5.28;;;22.30;1.00;;;;;;7360384;19;20017;-65
2022/07/29 06:07:51;;;;;;;5.25;4.70;;;22.10;1.00;;;;;;7361832;19;20077;-64
2022/07/29 06:10:21;;;;;;;7.07;5.25;;;22.40;1.00;;;;;;7362293;19;20064;-65
2022/07/29 06:12:56;;;;;;;6.68;5.35;;;22.10;1.00;;;;;;7384648;19;21102;-65
2022/07/29 06:15:26;;;;;;;6.85;5.88;;;22.70;1.00;;;;;;7362798;19;20078;-65
2022/07/29 06:17:55;;;;;;;7.85;5.63;;;22.40;1.00;;;;;;7359870;19;20018;-66
2022/07/29 06:20:36;;;;;;;5.72;5.18;;;22.40;1.00;;;;;;7362332;19;20038;-66
2022/07/29 06:23:06;;;;;;;8.00;5.70;;;22.50;1.00;;;;;;7349521;19;20093;-65
2022/07/29 06:25:39;;;;;;;6.60;4.72;;;23.30;1.00;;;;;;7358902;19;20015;-66
2022/07/29 06:28:09;;;;;;;5.43;4.88;;;23.70;1.00;;;;;;7358749;19;20090;-65
2022/07/29 06:30:39;;;;;;;5.75;4.38;;;24.40;1.00;;;;;;7383920;19;20496;-65
2022/07/29 06:33:09;;;;;;;6.45;4.40;;;23.90;1.00;;;;;;7361819;19;20535;-65
2022/07/29 06:35:41;;;;;;;6.82;4.72;;;23.70;1.00;;;;;;7365283;19;20360;-65
2022/07/29 06:38:23;;;;;;;6.45;4.40;;;23.40;1.00;;;;;;7363760;19;20034;-65
2022/07/29 06:41:03;;;;;;;6.68;4.78;;;23.20;1.00;;;;;;7366708;19;20006;-66
2022/07/29 06:43:37;;;;;;;4.50;3.95;;;23.40;1.00;;;;;;7361767;19;20057;-65
2022/07/29 06:46:21;;;;;;;7.55;4.40;;;23.10;1.00;;;;;;7366180;19;20027;-65
2022/07/29 06:48:52;;;;;;;4.97;4.03;;;23.00;1.00;;;;;;7386094;19;20042;-65
2022/07/29 06:51:27;;;;;;;5.88;4.05;;;22.60;1.00;;;;;;7365479;19;20074;-65
2022/07/29 06:53:57;;;;;;;7.47;4.47;;;22.40;1.00;;;;;;7360290;19;20089;-66
2022/07/29 06:56:32;;;;;;;4.50;4.10;;;22.50;1.00;;;;;;7365093;19;20096;-65
2022/07/29 06:59:09;;;;;;;6.20;4.15;;;22.20;1.00;;;;;;7365300;19;20021;-66
2022/07/29 07:01:40;;;;;;;4.72;3.72;;;22.60;1.00;;;;;;7364776;19;20545;-66
2022/07/29 07:04:11;;;;;;;7.93;4.18;;;22.90;1.00;;;;;;7360351;19;20018;-66
2022/07/29 07:06:43;;;;;;;5.50;4.30;;;23.30;1.00;;;;;;7386005;19;20018;-65
2022/07/29 07:09:13;;;;;;;6.72;4.18;;;23.40;1.00;;;;;;7364235;19;20520;-65
2022/07/29 07:11:43;;;;;;;9.50;4.40;;;23.90;1.00;;;;;;7366487;19;20010;-65
2022/07/29 07:14:18;;;;;;;6.00;4.13;;;23.90;1.00;;;;;;7358977;19;20013;-66
2022/07/29 07:16:48;;;;;;;6.60;4.25;;;23.70;1.00;;;;;;7363676;19;20057;-66
2022/07/29 07:19:21;;;;;;;5.55;4.03;;;23.40;1.00;;;;;;7363664;19;20031;-66
2022/07/29 07:21:57;;;;;;;6.63;4.10;;;23.90;1.00;;;;;;7386336;19;20021;-66
2022/07/29 07:24:26;;;;;;;5.95;4.00;;;23.10;1.00;;;;;;7360140;19;20018;-65
2022/07/29 07:26:56;;;;;;;8.60;5.10;;;23.90;1.00;;;;;;7363224;19;20334;-65
2022/07/29 07:29:26;;;;;;;4.63;3.83;;;24.50;1.00;;;;;;7362704;19;20404;-66
2022/07/29 07:31:56;;;;;;;10.35;3.90;;;24.30;1.00;;;;;;7363692;19;20231;-66
2022/07/29 07:34:30;;;;;;;4.60;3.90;;;24.20;1.00;;;;;;7362379;19;20045;-65
2022/07/29 07:37:03;;;;;;;6.18;3.90;;;24.60;1.00;;;;;;7366488;19;20090;-66
2022/07/29 07:39:33;;;;;;;6.30;3.83;;;24.30;1.00;;;;;;7383016;19;20716;-66
2022/07/29 07:42:03;;;;;;;4.25;3.72;;;24.90;1.00;;;;;;7363782;19;20014;-66
2022/07/29 07:44:33;;;;;;;4.85;3.58;;;25.20;1.00;;;;;;7361801;19;20010;-66
2022/07/29 07:47:24;;;;;;;4.40;3.60;;;25.00;1.00;;;;;;7363134;19;20006;-65
2022/07/29 07:49:56;;;;;;;7.18;4.50;;;25.40;1.00;;;;;;7363704;19;20018;-65
2022/07/29 07:52:29;;;;;;;7.30;3.95;;;25.50;1.00;;;;;;7358209;19;20006;-66
2022/07/29 07:54:59;;;;;;;5.45;4.15;;;25.70;1.00;;;;;;7385915;19;20040;-66
2022/07/29 07:57:29;;;;;;;5.10;4.30;;;25.60;1.00;;;;;;7361661;19;20011;-66
2022/07/29 07:59:59;;;;;;;6.38;4.30;;;24.30;1.00;;;;;;7363078;19;20482;-66
2022/07/29 08:02:29;;;;;;;7.72;4.00;;;24.60;1.00;;;;;;7358916;19;20653;-66
2022/07/29 08:04:59;;;;;;;6.32;4.28;;;25.10;1.00;;;;;;7363464;19;20373;-66
2022/07/29 08:07:31;;;;;;;7.30;4.28;;;25.30;1.00;;;;;;7362360;19;20010;-66
2022/07/29 08:10:01;;;;;;;6.32;4.40;;;25.00;1.00;;;;;;7363742;19;20066;-67
2022/07/29 08:12:31;;;;;;;5.03;3.45;;;25.90;1.00;;;;;;7379362;19;20093;-66
2022/07/29 08:15:01;;;;;;;4.80;3.67;;;25.60;1.00;;;;;;7363763;19;20387;-66
2022/07/29 08:17:31;;;;;;;5.15;3.55;;;25.30;1.00;;;;;;7362164;19;20466;-67
2022/07/29 08:20:04;;;;;;;6.57;4.18;;;25.70;1.00;;;;;;7362703;19;20006;-66
2022/07/29 08:22:37;;;;;;;6.05;4.40;;;24.90;1.00;;;;;;7359494;19;20967;-66
2022/07/29 08:25:08;;;;;;;5.30;4.00;;;25.20;1.00;;;;;;7361070;19;20119;-66
2022/07/29 08:27:38;;;;;;;6.13;4.07;;;25.40;1.00;;;;;;7381631;19;20019;-66
2022/07/29 08:30:14;;;;;;;4.40;3.92;;;25.70;1.00;;;;;;7362826;19;20007;-66
2022/07/29 08:32:44;;;;;;;7.30;4.22;;;25.70;1.00;;;;;;7357292;19;20053;-66
2022/07/29 08:35:25;;;;;;;7.93;4.50;;;24.90;1.00;;;;;;7362726;19;20031;-66
2022/07/29 08:37:58;;;;;;;5.60;4.03;;;25.70;1.00;;;;;;7361589;19;20014;-65
2022/07/29 08:40:28;;;;;;;6.30;4.20;;;25.20;1.00;;;;;;7361218;19;20066;-66
2022/07/29 08:43:06;;;;;;;5.57;4.20;;;26.00;1.00;;;;;;7357412;19;20534;-66
2022/07/29 08:45:45;;;;;;;6.13;4.22;;;26.40;1.00;;;;;;7383183;19;20024;-66
2022/07/29 08:48:18;;;;;;;7.55;4.22;;;26.70;1.00;;;;;;7359676;19;20006;-66
2022/07/29 08:50:50;;;;;;;5.65;4.03;;;26.50;1.00;;;;;;7361715;19;20457;-66
2022/07/29 08:53:26;;;;;;;6.93;4.25;;;26.20;1.00;;;;;;7352709;19;20480;-66
2022/07/29 08:55:57;;;;;;;4.60;3.90;;;26.30;1.00;;;;;;7361563;19;20022;-66
2022/07/29 08:58:27;;;;;;;4.78;4.13;;;26.50;1.00;;;;;;7361092;19;20020;-65
2022/07/29 09:00:58;;;;;;;4.57;4.10;;;25.80;1.00;;;;;;7382962;19;20054;-65
2022/07/29 09:03:34;;;;;;;6.07;3.97;;;25.80;1.00;;;;;;7354449;19;20006;-65
2022/07/29 09:06:04;;;;;;;7.20;4.40;;;26.40;1.00;;;;;;7359806;19;20082;-66
2022/07/29 09:08:37;;;;;;;7.65;4.38;;;26.00;1.00;;;;;;7360536;19;20082;-66
2022/07/29 09:11:07;;;;;;;4.22;3.70;;;26.10;1.00;;;;;;7360101;19;20119;-65
2022/07/29 09:13:37;;;;;;;5.90;4.20;;;26.90;1.00;;;;;;7354368;19;20030;-66
2022/07/29 09:16:07;;;;;;;4.60;4.20;;;26.10;1.00;;;;;;7359355;19;20754;-65
2022/07/29 09:18:39;;;;;;;6.63;4.07;;;26.40;1.00;;;;;;7382264;19;20485;-66
2022/07/29 09:24:09;;;;;;;6.40;4.30;;;26.10;1.00;;;;;;7351519;19;20014;-66
2022/07/29 09:26:41;;;;;;;8.98;4.07;;;26.40;1.00;;;;;;7360281;19;20018;-68
2022/07/29 09:29:13;;;;;;;6.50;4.25;;;26.10;1.00;;;;;;7360306;19;20018;-66
2022/07/29 09:31:45;;;;;;;6.13;4.07;;;26.60;1.00;;;;;;7361677;19;20006;-66
2022/07/29 09:34:17;;;;;;;6.90;4.50;;;26.90;1.00;;;;;;7351485;19;20351;-66
2022/07/29 09:36:48;;;;;;;4.68;4.28;;;27.00;1.00;;;;;;7382013;19;20676;-65
2022/07/29 09:39:30;;;;;;;8.70;4.07;;;27.10;1.00;;;;;;7360283;19;20049;-65
2022/07/29 09:42:02;;;;;;;5.60;4.38;;;26.30;1.00;;;;;;7361450;19;20585;-64
2022/07/29 09:44:45;;;;;;;5.07;4.25;;;26.70;1.00;;;;;;7353296;19;20010;-66
2022/07/29 09:47:15;;;;;;;6.15;4.00;;;26.80;1.00;;;;;;7360775;19;20027;-69
2022/07/29 09:49:57;;;;;;;5.72;4.10;;;26.20;1.00;;;;;;7361506;19;20017;-66
2022/07/29 09:52:28;;;;;;;11.00;3.75;;;26.60;1.00;;;;;;7354415;19;20069;-66
2022/07/29 09:55:11;;;;;;;7.40;4.22;;;27.30;1.00;;;;;;7382086;19;20031;-67
2022/07/29 09:57:48;;;;;;;4.70;4.10;;;27.20;1.00;;;;;;7358088;19;20036;-66
2022/07/29 10:00:20;;;;;;;7.30;4.22;;;27.20;1.00;;;;;;7358946;19;20011;-66
2022/07/29 10:02:50;;;;;;;4.95;4.45;;;27.10;1.00;;;;;;7352494;19;20102;-66
2022/07/29 10:05:22;;;;;;;7.47;4.40;;;26.90;1.00;;;;;;7360721;19;20003;-66
2022/07/29 10:07:54;;;;;;;5.25;4.32;;;26.80;1.00;;;;;;7367732;19;20018;-66
2022/07/29 10:10:30;;;;;;;8.80;4.60;;;26.80;1.00;;;;;;7368243;19;20771;-66
2022/07/29 10:13:01;;;;;;;4.78;4.00;;;27.70;1.00;;;;;;7372929;19;20018;-67
2022/07/29 10:15:40;;;;;;;10.85;4.93;;;26.90;1.00;;;;;;7388682;19;20023;-66
2022/07/29 10:18:11;;;;;;;5.75;4.25;;;26.50;1.00;;;;;;7366693;19;20044;-66
2022/07/29 10:20:41;;;;;;;5.35;4.30;;;26.00;1.00;;;;;;7367050;19;20018;-66
2022/07/29 10:23:12;;;;;;;4.85;4.10;;;26.00;1.00;;;;;;7357860;19;20037;-67
2022/07/29 10:25:45;;;;;;;4.97;4.05;;;26.70;1.00;;;;;;7366253;19;20091;-67
2022/07/29 10:28:15;;;;;;;5.60;4.00;;;27.20;1.00;;;;;;7366157;19;20691;-67
2022/07/29 10:30:47;;;;;;;8.82;4.70;;;27.10;1.00;;;;;;7387743;19;20448;-68
2022/07/29 10:33:34;;;;;;;7.10;4.55;;;26.50;1.00;;;;;;7355914;19;20121;-66
2022/07/29 10:36:12;;;;;;;5.50;4.05;;;26.20;1.00;;;;;;7364969;19;20018;-66
2022/07/29 10:38:51;;;;;;;6.35;4.50;;;26.30;1.00;;;;;;7366186;19;20474;-67
2022/07/29 10:41:56;;;;;;;7.45;4.60;;;26.00;1.00;;;;;;7365582;19;20057;-67
2022/07/29 10:44:30;;;;;;;6.70;4.20;;;26.40;1.00;;;;;;7354661;19;20029;-66
2022/07/29 10:47:01;;;;;;;6.15;4.43;;;26.10;1.00;;;;;;7364886;19;20134;-65
2022/07/29 10:49:31;;;;;;;8.77;4.10;;;26.00;1.00;;;;;;7367326;19;20014;-66
2022/07/29 10:52:09;;;;;;;6.05;4.70;;;26.10;1.00;;;;;;7366100;19;20375;-65
2022/07/29 10:54:48;;;;;;;7.57;4.47;;;26.00;1.00;;;;;;7381323;19;20010;-66
2022/07/29 10:57:21;;;;;;;7.03;4.47;;;25.80;1.00;;;;;;7363559;19;20015;-68
2022/07/29 11:00:33;;;;;;;7.80;4.60;;;26.10;1.00;;;;;;7365639;19;20611;-66
2022/07/29 11:03:03;;;;;;;8.82;4.40;;;26.00;1.00;;;;;;7357160;19;20018;-67
2022/07/29 11:05:57;;;;;;;5.85;3.95;;;26.00;1.00;;;;;;7364786;19;20014;-66
2022/07/29 11:08:30;;;;;;;7.10;4.05;;;26.10;1.00;;;;;;7366451;19;20199;-67
2022/07/29 11:11:36;;;;;;;5.88;4.00;;;26.10;1.00;;;;;;7366884;19;20014;-67
2022/07/29 11:14:06;;;;;;;5.53;4.38;;;25.90;1.00;;;;;;7354805;19;20015;-67
2022/07/29 11:17:07;;;;;;;6.10;3.95;;;26.00;1.00;;;;;;7364847;19;20473;-67
2022/07/29 11:19:41;;;;;;;5.47;4.18;;;25.90;1.00;;;;;;7364434;19;20499;-66
2022/07/29 11:22:35;;;;;;;6.30;4.20;;;26.30;1.00;;;;;;7363142;19;20022;-66
2022/07/29 11:25:17;;;;;;;5.80;3.80;;;26.50;1.00;;;;;;7362355;19;20021;-67
2022/07/29 11:28:16;;;;;;;6.05;3.97;;;26.50;1.00;;;;;;7364390;19;20023;-66
2022/07/29 11:30:56;;;;;;;6.88;3.97;;;26.30;1.00;;;;;;7385277;19;20056;-67
2022/07/29 11:33:33;;;;;;;5.45;3.90;;;26.20;1.00;;;;;;7355109;19;20018;-67
2022/07/29 11:36:23;;;;;;;9.05;3.60;;;26.40;1.00;;;;;;7363018;19;20010;-67
2022/07/29 11:39:28;;;;;;;12.10;3.85;;;26.50;1.00;;;;;;7364108;19;20034;-67
2022/07/29 11:42:36;;;;;;;7.95;3.90;;;27.10;1.00;;;;;;7363549;19;20010;-65
2022/07/29 11:45:13;;;;;;;4.97;3.70;;;27.40;1.00;;;;;;7363256;19;20015;-66
2022/07/29 11:48:03;;;;;;;8.63;3.80;;;27.50;1.00;;;;;;7364490;19;20404;-65
2022/07/29 11:50:55;;;;;;;5.03;3.42;;;28.10;1.00;;;;;;7363865;19;20021;-65
2022/07/29 11:53:27;;;;;;;6.18;4.20;;;28.40;1.00;;;;;;7356141;19;20077;-67
2022/07/29 11:56:02;;;;;;;5.63;4.60;;;28.10;1.00;;;;;;7363388;19;20482;-66
2022/07/29 11:58:33;;;;;;;7.95;4.43;;;28.10;1.00;;;;;;7364605;19;20007;-68
2022/07/29 12:01:04;;;;;;;6.88;4.38;;;28.10;1.00;;;;;;7363933;19;20086;-67
2022/07/29 12:03:34;;;;;;;5.30;4.70;;;28.30;1.00;;;;;;7376965;19;20048;-70
2022/07/29 12:06:15;;;;;;;8.95;5.07;;;28.10;1.00;;;;;;7360998;19;20014;-69
2022/07/29 12:09:10;;;;;;;9.40;5.15;;;26.80;1.00;;;;;;7362689;19;20011;-70
2022/07/29 12:11:43;;;;;;;5.95;4.68;;;26.90;1.00;;;;;;7363207;19;20018;-69
2022/07/29 12:14:30;;;;;;;6.78;4.90;;;27.20;1.00;;;;;;7353397;19;20002;-69
2022/07/29 12:17:00;;;;;;;6.00;4.63;;;27.10;1.00;;;;;;7361087;19;20089;-68
2022/07/29 12:19:30;;;;;;;5.50;4.72;;;26.90;1.00;;;;;;7363440;19;20018;-69
2022/07/29 12:22:03;;;;;;;7.05;4.28;;;26.80;1.00;;;;;;7373157;19;20117;-71
2022/07/29 12:24:46;;;;;;;4.97;4.53;;;26.90;1.00;;;;;;7378183;19;20102;-71
2022/07/29 12:27:20;;;;;;;5.72;4.50;;;27.10;1.00;;;;;;7360644;19;20011;-69
2022/07/29 12:29:59;;;;;;;6.28;4.50;;;27.10;1.00;;;;;;7362433;19;20011;-69
2022/07/29 12:32:34;;;;;;;7.60;4.50;;;27.00;1.00;;;;;;7355405;19;20023;-69
2022/07/29 12:35:07;;;;;;;6.07;5.25;;;27.00;1.00;;;;;;7358951;19;20021;-70
2022/07/29 12:37:42;;;;;;;5.60;4.53;;;26.80;1.00;;;;;;7360575;19;20010;-70
2022/07/29 12:40:15;;;;;;;6.63;4.15;;;26.60;1.00;;;;;;7362729;19;20010;-69
2022/07/29 12:43:15;;;;;;;5.57;4.55;;;27.00;1.00;;;;;;7374041;19;20025;-70
2022/07/29 12:45:47;;;;;;;7.18;4.40;;;26.60;1.00;;;;;;7361322;19;20560;-68
2022/07/29 12:48:19;;;;;;;7.65;4.55;;;26.20;1.00;;;;;;7360626;19;20010;-69
2022/07/29 12:50:57;;;;;;;7.78;4.88;;;26.30;1.00;;;;;;7361027;19;20053;-69
2022/07/29 12:53:30;;;;;;;6.82;5.05;;;26.10;1.00;;;;;;7355206;19;20474;-68
2022/07/29 12:56:02;;;;;;;7.35;4.43;;;26.10;1.00;;;;;;7358268;19;20082;-70
2022/07/29 12:58:44;;;;;;;5.55;4.22;;;25.90;1.00;;;;;;7361916;19;20010;-69
2022/07/29 13:01:20;;;;;;;6.60;3.90;;;25.90;1.00;;;;;;7362427;19;20031;-68
2022/07/29 13:03:53;;;;;;;5.80;4.50;;;26.00;1.00;;;;;;7375325;19;20028;-68
2022/07/29 13:06:41;;;;;;;5.70;4.43;;;26.00;1.00;;;;;;7358201;19;20014;-68
2022/07/29 13:09:18;;;;;;;7.63;4.85;;;26.10;1.00;;;;;;7361121;19;20006;-68
2022/07/29 13:11:50;;;;;;;6.63;4.45;;;26.40;1.00;;;;;;7361384;19;20017;-68
2022/07/29 13:14:34;;;;;;;6.90;4.63;;;26.80;1.00;;;;;;7353509;19;20007;-69
2022/07/29 13:17:07;;;;;;;5.85;4.10;;;26.60;1.00;;;;;;7360655;19;20046;-69
2022/07/29 13:19:40;;;;;;;5.37;4.10;;;26.60;1.00;;;;;;7361081;19;20011;-69
2022/07/29 13:22:10;;;;;;;6.28;4.10;;;26.50;1.00;;;;;;7360622;19;20251;-68
2022/07/29 13:24:54;;;;;;;20.73;17.77;;;26.60;1.00;;;;;;7376457;19;20073;-74
2022/07/29 13:27:25;;;;;;;4.95;3.80;;;26.40;1.00;;;;;;7359398;19;20024;-69
2022/07/29 13:29:57;;;;;;;4.15;3.80;;;26.20;1.00;;;;;;7361690;19;20010;-70
2022/07/29 13:32:31;;;;;;;6.03;3.65;;;26.10;1.00;;;;;;7355478;19;20406;-68